sensor_id;sensor_type;location;lat;lon;timestamp;pressure;altitude;pressure_sealevel;temperature;humidity
77691;BME280;66850;45.778;3.090;2023-01-13T00:00:13;97407.98;;;12.59;22.04
77691;BME280;66850;45.778;3.090;2023-01-13T00:02:36;97405.75;;;11.89;22.51
77691;BME280;66850;45.778;3.090;2023-01-13T00:05:01;97398.81;;;12.17;22.41
77691;BME280;66850;45.778;3.090;2023-01-13T00:07:27;97397.78;;;12.54;22.19
77691;BME280;66850;45.778;3.090;2023-01-13T00:09:52;97388.91;;;12.78;22.13
77691;BME280;66850;45.778;3.090;2023-01-13T00:12:18;97394.51;;;12.32;22.20
77691;BME280;66850;45.778;3.090;2023-01-13T00:14:43;97393.68;;;12.52;22.19
77691;BME280;66850;45.778;3.090;2023-01-13T00:17:08;97393.43;;;12.66;22.05
77691;BME280;66850;45.778;3.090;2023-01-13T00:19:34;97385.07;;;12.36;22.40
77691;BME280;66850;45.778;3.090;2023-01-13T00:21:59;97383.23;;;11.45;22.83
77691;BME280;66850;45.778;3.090;2023-01-13T00:24:24;97377.31;;;12.48;22.25
77691;BME280;66850;45.778;3.090;2023-01-13T00:26:49;97375.03;;;12.27;22.56
77691;BME280;66850;45.778;3.090;2023-01-13T00:29:15;97380.38;;;11.94;22.45
77691;BME280;66850;45.778;3.090;2023-01-13T00:31:40;97359.10;;;12.08;22.56
77691;BME280;66850;45.778;3.090;2023-01-13T00:34:06;97363.49;;;12.11;22.55
77691;BME280;66850;45.778;3.090;2023-01-13T00:36:31;97358.03;;;12.50;22.47
77691;BME280;66850;45.778;3.090;2023-01-13T00:38:58;97358.85;;;12.73;22.09
77691;BME280;66850;45.778;3.090;2023-01-13T00:41:25;97366.82;;;12.37;22.24
77691;BME280;66850;45.778;3.090;2023-01-13T00:43:49;97359.98;;;11.88;22.57
77691;BME280;66850;45.778;3.090;2023-01-13T00:46:16;97359.55;;;11.59;22.70
77691;BME280;66850;45.778;3.090;2023-01-13T00:48:39;97353.52;;;11.59;22.63
77691;BME280;66850;45.778;3.090;2023-01-13T00:51:07;97358.06;;;11.55;22.66
77691;BME280;66850;45.778;3.090;2023-01-13T00:53:33;97348.86;;;12.00;22.43
77691;BME280;66850;45.778;3.090;2023-01-13T00:55:58;97350.41;;;12.20;22.21
77691;BME280;66850;45.778;3.090;2023-01-13T00:58:21;97349.28;;;12.66;22.43
77691;BME280;66850;45.778;3.090;2023-01-13T01:00:47;97352.25;;;12.44;22.13
77691;BME280;66850;45.778;3.090;2023-01-13T01:03:13;97342.91;;;12.20;22.32
77691;BME280;66850;45.778;3.090;2023-01-13T01:05:38;97343.83;;;12.62;22.10
77691;BME280;66850;45.778;3.090;2023-01-13T01:08:04;97339.92;;;12.42;22.27
77691;BME280;66850;45.778;3.090;2023-01-13T01:10:29;97334.88;;;11.65;22.74
77691;BME280;66850;45.778;3.090;2023-01-13T01:12:55;97333.54;;;11.91;22.55
77691;BME280;66850;45.778;3.090;2023-01-13T01:15:20;97330.58;;;12.12;22.45
77691;BME280;66850;45.778;3.090;2023-01-13T01:17:45;97325.52;;;11.21;22.89
77691;BME280;66850;45.778;3.090;2023-01-13T01:20:11;97327.85;;;12.10;22.24
77691;BME280;66850;45.778;3.090;2023-01-13T01:22:36;97320.63;;;11.59;22.71
77691;BME280;66850;45.778;3.090;2023-01-13T01:25:02;97322.68;;;11.55;22.70
77691;BME280;66850;45.778;3.090;2023-01-13T01:27:27;97312.91;;;11.32;22.78
77691;BME280;66850;45.778;3.090;2023-01-13T01:29:53;97310.52;;;11.67;22.71
77691;BME280;66850;45.778;3.090;2023-01-13T01:32:18;97306.31;;;12.10;22.70
77691;BME280;66850;45.778;3.090;2023-01-13T01:34:44;97312.13;;;11.91;22.31
77691;BME280;66850;45.778;3.090;2023-01-13T01:37:09;97309.41;;;11.79;22.64
77691;BME280;66850;45.778;3.090;2023-01-13T01:39:35;97316.07;;;11.23;22.73
77691;BME280;66850;45.778;3.090;2023-01-13T01:42:00;97315.43;;;12.17;22.31
77691;BME280;66850;45.778;3.090;2023-01-13T01:45:02;97317.47;;;11.78;22.69
77691;BME280;66850;45.778;3.090;2023-01-13T01:46:51;97317.81;;;11.43;22.80
77691;BME280;66850;45.778;3.090;2023-01-13T01:49:18;97319.73;;;12.37;22.35
77691;BME280;66850;45.778;3.090;2023-01-13T01:51:45;97319.70;;;11.49;22.78
77691;BME280;66850;45.778;3.090;2023-01-13T01:54:10;97319.00;;;12.02;22.55
77691;BME280;66850;45.778;3.090;2023-01-13T01:56:33;97309.97;;;11.42;22.57
77691;BME280;66850;45.778;3.090;2023-01-13T01:58:58;97313.80;;;12.04;22.62
77691;BME280;66850;45.778;3.090;2023-01-13T02:01:23;97314.74;;;11.94;22.65
77691;BME280;66850;45.778;3.090;2023-01-13T02:03:53;97308.66;;;11.86;22.70
77691;BME280;66850;45.778;3.090;2023-01-13T02:06:15;97303.84;;;11.31;22.73
77691;BME280;66850;45.778;3.090;2023-01-13T02:08:40;97307.15;;;11.44;22.74
77691;BME280;66850;45.778;3.090;2023-01-13T02:11:06;97303.59;;;11.69;22.47
77691;BME280;66850;45.778;3.090;2023-01-13T02:13:31;97304.43;;;11.91;22.43
77691;BME280;66850;45.778;3.090;2023-01-13T02:16:01;97309.07;;;11.88;22.52
77691;BME280;66850;45.778;3.090;2023-01-13T02:18:33;97304.41;;;12.05;22.51
77691;BME280;66850;45.778;3.090;2023-01-13T02:20:58;97308.08;;;11.73;22.82
77691;BME280;66850;45.778;3.090;2023-01-13T02:23:29;97299.01;;;11.53;22.64
77691;BME280;66850;45.778;3.090;2023-01-13T02:25:49;97297.94;;;12.04;22.37
77691;BME280;66850;45.778;3.090;2023-01-13T02:28:19;97289.11;;;11.64;22.85
77691;BME280;66850;45.778;3.090;2023-01-13T02:30:37;97298.60;;;11.70;22.85
77691;BME280;66850;45.778;3.090;2023-01-13T02:33:04;97294.47;;;11.82;22.51
77691;BME280;66850;45.778;3.090;2023-01-13T02:35:23;97289.16;;;12.15;22.20
77691;BME280;66850;45.778;3.090;2023-01-13T02:37:47;97289.06;;;11.18;22.69
77691;BME280;66850;45.778;3.090;2023-01-13T02:40:19;97272.33;;;11.90;22.27
77691;BME280;66850;45.778;3.090;2023-01-13T02:42:40;97272.77;;;11.42;22.62
77691;BME280;66850;45.778;3.090;2023-01-13T02:45:08;97275.63;;;11.79;22.58
77691;BME280;66850;45.778;3.090;2023-01-13T02:47:29;97271.64;;;12.17;22.51
77691;BME280;66850;45.778;3.090;2023-01-13T02:49:57;97262.04;;;12.30;22.33
77691;BME280;66850;45.778;3.090;2023-01-13T02:52:22;97258.04;;;11.12;23.01
77691;BME280;66850;45.778;3.090;2023-01-13T02:54:50;97250.08;;;11.25;22.94
77691;BME280;66850;45.778;3.090;2023-01-13T02:57:11;97258.55;;;11.99;22.63
77691;BME280;66850;45.778;3.090;2023-01-13T02:59:35;97254.39;;;11.87;22.73
77691;BME280;66850;45.778;3.090;2023-01-13T03:02:01;97254.17;;;11.66;22.62
77691;BME280;66850;45.778;3.090;2023-01-13T03:04:46;97255.75;;;11.19;22.69
77691;BME280;66850;45.778;3.090;2023-01-13T03:06:58;97244.67;;;10.89;23.08
77691;BME280;66850;45.778;3.090;2023-01-13T03:09:21;97241.23;;;11.38;22.99
77691;BME280;66850;45.778;3.090;2023-01-13T03:11:49;97242.39;;;10.89;23.12
77691;BME280;66850;45.778;3.090;2023-01-13T03:14:18;97239.41;;;12.02;22.32
77691;BME280;66850;45.778;3.090;2023-01-13T03:16:48;97236.91;;;11.92;22.52
77691;BME280;66850;45.778;3.090;2023-01-13T03:19:06;97237.85;;;12.58;22.28
77691;BME280;66850;45.778;3.090;2023-01-13T03:21:27;97241.20;;;12.91;21.77
77691;BME280;66850;45.778;3.090;2023-01-13T03:23:50;97240.88;;;11.96;22.08
77691;BME280;66850;45.778;3.090;2023-01-13T03:26:18;97236.83;;;12.65;21.93
77691;BME280;66850;45.778;3.090;2023-01-13T03:28:44;97234.09;;;11.75;22.68
77691;BME280;66850;45.778;3.090;2023-01-13T03:31:10;97233.83;;;12.00;22.20
77691;BME280;66850;45.778;3.090;2023-01-13T03:33:41;97241.41;;;11.16;22.75
77691;BME280;66850;45.778;3.090;2023-01-13T03:36:01;97250.69;;;11.86;22.46
77691;BME280;66850;45.778;3.090;2023-01-13T03:38:28;97242.65;;;12.43;21.88
77691;BME280;66850;45.778;3.090;2023-01-13T03:40:49;97243.06;;;12.62;21.90
77691;BME280;66850;45.778;3.090;2023-01-13T03:43:15;97241.45;;;13.29;21.39
77691;BME280;66850;45.778;3.090;2023-01-13T03:45:38;97237.16;;;12.45;21.81
77691;BME280;66850;45.778;3.090;2023-01-13T03:48:06;97230.11;;;13.35;21.46
77691;BME280;66850;45.778;3.090;2023-01-13T03:50:33;97230.55;;;13.06;21.57
77691;BME280;66850;45.778;3.090;2023-01-13T03:52:57;97233.00;;;13.48;21.48
77691;BME280;66850;45.778;3.090;2023-01-13T03:55:22;97236.81;;;13.09;21.72
77691;BME280;66850;45.778;3.090;2023-01-13T03:57:56;97224.29;;;13.49;21.35
77691;BME280;66850;45.778;3.090;2023-01-13T04:00:12;97219.35;;;13.66;21.23
77691;BME280;66850;45.778;3.090;2023-01-13T04:02:44;97226.72;;;13.94;21.28
77691;BME280;66850;45.778;3.090;2023-01-13T04:05:04;97224.68;;;13.62;21.22
77691;BME280;66850;45.778;3.090;2023-01-13T04:07:38;97221.19;;;13.25;21.46
77691;BME280;66850;45.778;3.090;2023-01-13T04:09:54;97224.16;;;13.56;21.27
77691;BME280;66850;45.778;3.090;2023-01-13T04:12:24;97224.36;;;13.63;21.09
77691;BME280;66850;45.778;3.090;2023-01-13T04:14:44;97230.57;;;13.88;21.16
77691;BME280;66850;45.778;3.090;2023-01-13T04:17:09;97219.12;;;14.06;21.24
77691;BME280;66850;45.778;3.090;2023-01-13T04:19:34;97223.25;;;13.65;21.23
77691;BME280;66850;45.778;3.090;2023-01-13T04:22:00;97222.70;;;13.66;21.07
77691;BME280;66850;45.778;3.090;2023-01-13T04:24:25;97228.86;;;14.21;21.03
77691;BME280;66850;45.778;3.090;2023-01-13T04:26:51;97217.82;;;13.70;21.13
77691;BME280;66850;45.778;3.090;2023-01-13T04:29:17;97231.67;;;14.07;21.15
77691;BME280;66850;45.778;3.090;2023-01-13T04:31:43;97225.05;;;14.10;21.20
77691;BME280;66850;45.778;3.090;2023-01-13T04:34:09;97216.26;;;13.73;21.20
77691;BME280;66850;45.778;3.090;2023-01-13T04:36:33;97227.62;;;14.00;21.19
77691;BME280;66850;45.778;3.090;2023-01-13T04:38:59;97229.80;;;14.05;21.11
77691;BME280;66850;45.778;3.090;2023-01-13T04:41:24;97213.29;;;14.05;21.08
77691;BME280;66850;45.778;3.090;2023-01-13T04:43:50;97219.42;;;13.93;21.07
77691;BME280;66850;45.778;3.090;2023-01-13T04:46:15;97226.49;;;13.96;21.13
77691;BME280;66850;45.778;3.090;2023-01-13T04:48:41;97221.38;;;13.72;21.33
77691;BME280;66850;45.778;3.090;2023-01-13T04:51:06;97231.46;;;13.96;21.22
77691;BME280;66850;45.778;3.090;2023-01-13T04:53:31;97237.41;;;14.08;21.24
77691;BME280;66850;45.778;3.090;2023-01-13T04:55:57;97241.62;;;13.85;21.22
77691;BME280;66850;45.778;3.090;2023-01-13T04:58:22;97238.44;;;13.70;21.26
77691;BME280;66850;45.778;3.090;2023-01-13T05:00:49;97243.51;;;14.08;21.10
77691;BME280;66850;45.778;3.090;2023-01-13T05:03:13;97254.72;;;13.87;21.17
77691;BME280;66850;45.778;3.090;2023-01-13T05:05:39;97247.15;;;13.92;21.12
77691;BME280;66850;45.778;3.090;2023-01-13T05:08:05;97253.18;;;13.85;21.01
77691;BME280;66850;45.778;3.090;2023-01-13T05:10:30;97255.27;;;13.78;21.27
77691;BME280;66850;45.778;3.090;2023-01-13T05:12:55;97250.05;;;14.25;21.09
77691;BME280;66850;45.778;3.090;2023-01-13T05:15:21;97242.88;;;13.95;21.48
77691;BME280;66850;45.778;3.090;2023-01-13T05:17:47;97245.75;;;13.97;21.24
77691;BME280;66850;45.778;3.090;2023-01-13T05:20:12;97246.54;;;13.83;21.18
77691;BME280;66850;45.778;3.090;2023-01-13T05:22:37;97251.04;;;13.98;21.25
77691;BME280;66850;45.778;3.090;2023-01-13T05:25:04;97251.83;;;13.56;21.46
77691;BME280;66850;45.778;3.090;2023-01-13T05:27:29;97242.41;;;13.74;21.31
77691;BME280;66850;45.778;3.090;2023-01-13T05:29:54;97246.68;;;13.92;21.22
77691;BME280;66850;45.778;3.090;2023-01-13T05:32:20;97251.39;;;13.83;21.36
77691;BME280;66850;45.778;3.090;2023-01-13T05:34:45;97263.40;;;13.90;21.35
77691;BME280;66850;45.778;3.090;2023-01-13T05:37:10;97261.80;;;13.97;21.23
77691;BME280;66850;45.778;3.090;2023-01-13T05:39:36;97246.63;;;13.83;21.28
77691;BME280;66850;45.778;3.090;2023-01-13T05:42:02;97248.50;;;13.71;21.37
77691;BME280;66850;45.778;3.090;2023-01-13T05:44:27;97255.03;;;14.00;21.11
77691;BME280;66850;45.778;3.090;2023-01-13T05:46:53;97247.71;;;13.96;21.32
77691;BME280;66850;45.778;3.090;2023-01-13T05:49:18;97258.51;;;13.91;21.29
77691;BME280;66850;45.778;3.090;2023-01-13T05:51:43;97239.07;;;14.07;21.28
77691;BME280;66850;45.778;3.090;2023-01-13T05:54:09;97254.22;;;13.82;21.37
77691;BME280;66850;45.778;3.090;2023-01-13T05:56:34;97261.57;;;13.88;21.40
77691;BME280;66850;45.778;3.090;2023-01-13T05:59:00;97252.01;;;13.98;21.28
77691;BME280;66850;45.778;3.090;2023-01-13T06:01:26;97261.10;;;13.65;21.60
77691;BME280;66850;45.778;3.090;2023-01-13T06:03:51;97268.06;;;13.20;21.67
77691;BME280;66850;45.778;3.090;2023-01-13T06:06:16;97254.58;;;13.21;21.57
77691;BME280;66850;45.778;3.090;2023-01-13T06:08:42;97284.16;;;12.84;21.85
77691;BME280;66850;45.778;3.090;2023-01-13T06:11:07;97268.25;;;12.93;21.97
77691;BME280;66850;45.778;3.090;2023-01-13T06:13:33;97300.74;;;13.18;21.93
77691;BME280;66850;45.778;3.090;2023-01-13T06:15:58;97279.97;;;11.42;22.95
77691;BME280;66850;45.778;3.090;2023-01-13T06:18:24;97291.12;;;12.14;22.72
77691;BME280;66850;45.778;3.090;2023-01-13T06:20:49;97290.87;;;8.81;23.93
77691;BME280;66850;45.778;3.090;2023-01-13T06:23:15;97299.17;;;10.33;23.31
77691;BME280;66850;45.778;3.090;2023-01-13T06:25:45;97302.35;;;12.01;22.69
77691;BME280;66850;45.778;3.090;2023-01-13T06:28:06;97314.99;;;10.45;23.50
77691;BME280;66850;45.778;3.090;2023-01-13T06:30:35;97333.30;;;11.01;22.95
77691;BME280;66850;45.778;3.090;2023-01-13T06:32:59;97322.88;;;11.32;22.59
77691;BME280;66850;45.778;3.090;2023-01-13T06:35:24;97336.53;;;9.83;23.16
77691;BME280;66850;45.778;3.090;2023-01-13T06:37:50;97328.28;;;10.27;23.53
77691;BME280;66850;45.778;3.090;2023-01-13T06:40:13;97345.93;;;11.62;22.26
77691;BME280;66850;45.778;3.090;2023-01-13T06:42:39;97359.56;;;11.61;22.51
77691;BME280;66850;45.778;3.090;2023-01-13T06:45:05;97359.52;;;12.06;21.57
77691;BME280;66850;45.778;3.090;2023-01-13T06:47:30;97362.99;;;9.86;22.45
77691;BME280;66850;45.778;3.090;2023-01-13T06:49:55;97368.67;;;10.80;23.13
77691;BME280;66850;45.778;3.090;2023-01-13T06:52:21;97350.43;;;12.03;22.33
77691;BME280;66850;45.778;3.090;2023-01-13T06:54:46;97360.33;;;9.97;24.17
77691;BME280;66850;45.778;3.090;2023-01-13T06:57:12;97378.50;;;9.98;22.97
77691;BME280;66850;45.778;3.090;2023-01-13T06:59:37;97377.36;;;8.12;24.13
77691;BME280;66850;45.778;3.090;2023-01-13T07:02:03;97378.96;;;9.09;23.23
77691;BME280;66850;45.778;3.090;2023-01-13T07:04:29;97383.91;;;10.18;22.37
77691;BME280;66850;45.778;3.090;2023-01-13T07:06:54;97393.74;;;8.12;23.53
77691;BME280;66850;45.778;3.090;2023-01-13T07:09:20;97388.84;;;9.08;23.71
77691;BME280;66850;45.778;3.090;2023-01-13T07:11:45;97391.55;;;11.80;22.23
77691;BME280;66850;45.778;3.090;2023-01-13T07:14:11;97408.55;;;11.48;22.84
77691;BME280;66850;45.778;3.090;2023-01-13T07:16:36;97393.68;;;11.31;22.75
77691;BME280;66850;45.778;3.090;2023-01-13T07:19:02;97388.31;;;9.43;23.80
77691;BME280;66850;45.778;3.090;2023-01-13T07:21:28;97391.19;;;9.50;22.70
77691;BME280;66850;45.778;3.090;2023-01-13T07:23:53;97403.79;;;9.18;22.88
77691;BME280;66850;45.778;3.090;2023-01-13T07:26:19;97434.29;;;8.75;23.41
77691;BME280;66850;45.778;3.090;2023-01-13T07:28:44;97427.63;;;10.30;22.53
77691;BME280;66850;45.778;3.090;2023-01-13T07:31:14;97425.21;;;11.01;22.14
77691;BME280;66850;45.778;3.090;2023-01-13T07:33:35;97429.55;;;8.97;23.15
77691;BME280;66850;45.778;3.090;2023-01-13T07:36:03;97422.01;;;10.30;22.75
77691;BME280;66850;45.778;3.090;2023-01-13T07:38:27;97457.93;;;5.55;25.55
77691;BME280;66850;45.778;3.090;2023-01-13T07:40:52;97459.09;;;9.49;22.96
77691;BME280;66850;45.778;3.090;2023-01-13T07:43:18;97457.55;;;9.05;24.15
77691;BME280;66850;45.778;3.090;2023-01-13T07:45:43;97465.93;;;7.63;24.35
77691;BME280;66850;45.778;3.090;2023-01-13T07:48:09;97469.97;;;8.02;24.04
77691;BME280;66850;45.778;3.090;2023-01-13T07:50:34;97463.39;;;10.48;22.28
77691;BME280;66850;45.778;3.090;2023-01-13T07:53:00;97471.66;;;10.91;21.85
77691;BME280;66850;45.778;3.090;2023-01-13T07:55:26;97482.64;;;10.43;22.01
77691;BME280;66850;45.778;3.090;2023-01-13T07:57:51;97482.67;;;11.66;21.47
77691;BME280;66850;45.778;3.090;2023-01-13T08:00:18;97477.68;;;12.49;20.64
77691;BME280;66850;45.778;3.090;2023-01-13T08:02:42;97460.98;;;12.85;20.57
77691;BME280;66850;45.778;3.090;2023-01-13T08:05:08;97461.18;;;12.43;20.63
77691;BME280;66850;45.778;3.090;2023-01-13T08:07:34;97463.17;;;12.41;20.68
77691;BME280;66850;45.778;3.090;2023-01-13T08:09:59;97463.27;;;12.79;20.53
77691;BME280;66850;45.778;3.090;2023-01-13T08:12:24;97468.15;;;12.79;20.49
77691;BME280;66850;45.778;3.090;2023-01-13T08:14:50;97463.70;;;12.70;20.61
77691;BME280;66850;45.778;3.090;2023-01-13T08:17:16;97458.33;;;12.58;20.56
77691;BME280;66850;45.778;3.090;2023-01-13T08:19:41;97461.43;;;13.36;20.25
77691;BME280;66850;45.778;3.090;2023-01-13T08:22:06;97460.10;;;12.56;20.78
77691;BME280;66850;45.778;3.090;2023-01-13T08:24:32;97470.17;;;12.22;20.74
77691;BME280;66850;45.778;3.090;2023-01-13T08:26:58;97470.60;;;13.17;20.49
77691;BME280;66850;45.778;3.090;2023-01-13T08:29:23;97468.84;;;13.03;20.61
77691;BME280;66850;45.778;3.090;2023-01-13T08:31:49;97476.72;;;12.92;20.64
77691;BME280;66850;45.778;3.090;2023-01-13T08:34:14;97480.80;;;12.93;20.80
77691;BME280;66850;45.778;3.090;2023-01-13T08:36:40;97493.63;;;11.11;21.59
77691;BME280;66850;45.778;3.090;2023-01-13T08:39:05;97499.28;;;12.63;21.03
77691;BME280;66850;45.778;3.090;2023-01-13T08:41:31;97507.48;;;12.13;21.27
77691;BME280;66850;45.778;3.090;2023-01-13T08:43:56;97512.19;;;12.38;21.15
77691;BME280;66850;45.778;3.090;2023-01-13T08:46:22;97527.92;;;11.90;21.48
77691;BME280;66850;45.778;3.090;2023-01-13T08:48:47;97538.37;;;12.08;21.48
77691;BME280;66850;45.778;3.090;2023-01-13T08:51:13;97541.73;;;12.02;21.32
77691;BME280;66850;45.778;3.090;2023-01-13T08:53:38;97551.37;;;11.80;21.31
77691;BME280;66850;45.778;3.090;2023-01-13T08:56:06;97555.59;;;12.26;21.42
77691;BME280;66850;45.778;3.090;2023-01-13T08:58:29;97559.71;;;11.92;21.63
77691;BME280;66850;45.778;3.090;2023-01-13T09:00:55;97560.24;;;12.11;21.59
77691;BME280;66850;45.778;3.090;2023-01-13T09:03:20;97573.19;;;12.15;21.48
77691;BME280;66850;45.778;3.090;2023-01-13T09:05:46;97561.30;;;12.39;21.15
77691;BME280;66850;45.778;3.090;2023-01-13T09:08:11;97561.58;;;12.59;21.05
77691;BME280;66850;45.778;3.090;2023-01-13T09:10:37;97563.63;;;11.89;21.43
77691;BME280;66850;45.778;3.090;2023-01-13T09:13:02;97559.10;;;11.50;21.55
77691;BME280;66850;45.778;3.090;2023-01-13T09:15:28;97560.65;;;11.81;21.41
77691;BME280;66850;45.778;3.090;2023-01-13T09:17:54;97561.61;;;12.32;21.45
77691;BME280;66850;45.778;3.090;2023-01-13T09:20:19;97564.06;;;11.86;21.41
77691;BME280;66850;45.778;3.090;2023-01-13T09:22:45;97562.15;;;12.21;21.34
77691;BME280;66850;45.778;3.090;2023-01-13T09:25:10;97562.86;;;12.59;21.43
77691;BME280;66850;45.778;3.090;2023-01-13T09:27:36;97558.34;;;11.50;22.00
77691;BME280;66850;45.778;3.090;2023-01-13T09:30:01;97561.42;;;11.86;21.89
77691;BME280;66850;45.778;3.090;2023-01-13T09:32:27;97566.34;;;11.45;21.66
77691;BME280;66850;45.778;3.090;2023-01-13T09:34:52;97577.44;;;11.16;22.01
77691;BME280;66850;45.778;3.090;2023-01-13T09:37:18;97573.92;;;11.63;21.66
77691;BME280;66850;45.778;3.090;2023-01-13T09:39:43;97577.16;;;12.29;21.25
77691;BME280;66850;45.778;3.090;2023-01-13T09:42:16;97582.74;;;12.60;21.45
77691;BME280;66850;45.778;3.090;2023-01-13T09:44:42;97585.39;;;11.49;22.13
77691;BME280;66850;45.778;3.090;2023-01-13T09:47:03;97574.35;;;11.79;21.94
77691;BME280;66850;45.778;3.090;2023-01-13T09:49:32;97578.67;;;11.25;22.17
77691;BME280;66850;45.778;3.090;2023-01-13T09:51:54;97576.44;;;12.31;21.77
77691;BME280;66850;45.778;3.090;2023-01-13T09:54:21;97566.67;;;12.07;21.89
77691;BME280;66850;45.778;3.090;2023-01-13T09:56:42;97564.37;;;13.12;21.13
77691;BME280;66850;45.778;3.090;2023-01-13T09:59:09;97577.10;;;12.79;21.33
77691;BME280;66850;45.778;3.090;2023-01-13T10:01:38;97592.79;;;12.41;21.49
77691;BME280;66850;45.778;3.090;2023-01-13T10:04:02;97593.02;;;12.45;21.55
77691;BME280;66850;45.778;3.090;2023-01-13T10:06:34;97586.72;;;12.71;21.39
77691;BME280;66850;45.778;3.090;2023-01-13T10:08:50;97596.06;;;11.96;21.74
77691;BME280;66850;45.778;3.090;2023-01-13T10:11:17;97589.47;;;12.30;21.67
77691;BME280;66850;45.778;3.090;2023-01-13T10:13:41;97598.25;;;12.25;21.81
77691;BME280;66850;45.778;3.090;2023-01-13T10:16:20;97609.66;;;12.21;21.58
77691;BME280;66850;45.778;3.090;2023-01-13T10:18:40;97615.13;;;13.22;21.28
77691;BME280;66850;45.778;3.090;2023-01-13T10:21:02;97614.23;;;13.10;21.26
77691;BME280;66850;45.778;3.090;2023-01-13T10:23:40;97619.56;;;12.60;21.27
77691;BME280;66850;45.778;3.090;2023-01-13T10:25:54;97612.17;;;12.40;21.53
77691;BME280;66850;45.778;3.090;2023-01-13T10:28:15;97630.50;;;12.97;21.48
77691;BME280;66850;45.778;3.090;2023-01-13T10:30:40;97622.42;;;12.78;21.46
77691;BME280;66850;45.778;3.090;2023-01-13T10:33:10;97615.28;;;13.41;21.47
77691;BME280;66850;45.778;3.090;2023-01-13T10:35:48;97624.93;;;12.21;21.90
77691;BME280;66850;45.778;3.090;2023-01-13T10:37:56;97636.54;;;12.35;21.79
77691;BME280;66850;45.778;3.090;2023-01-13T10:40:22;97630.62;;;12.67;21.50
77691;BME280;66850;45.778;3.090;2023-01-13T10:42:47;97635.41;;;11.81;22.18
77691;BME280;66850;45.778;3.090;2023-01-13T10:45:24;97640.32;;;12.25;21.97
77691;BME280;66850;45.778;3.090;2023-01-13T10:47:38;97638.51;;;12.75;21.92
77691;BME280;66850;45.778;3.090;2023-01-13T10:50:20;97635.40;;;12.83;21.94
77691;BME280;66850;45.778;3.090;2023-01-13T10:52:32;97628.84;;;11.89;22.45
77691;BME280;66850;45.778;3.090;2023-01-13T10:54:55;97628.81;;;12.63;22.15
77691;BME280;66850;45.778;3.090;2023-01-13T10:57:22;97641.30;;;12.84;22.22
77691;BME280;66850;45.778;3.090;2023-01-13T10:59:46;97641.67;;;12.03;22.38
77691;BME280;66850;45.778;3.090;2023-01-13T11:02:18;97626.04;;;11.25;22.80
77691;BME280;66850;45.778;3.090;2023-01-13T11:04:39;97637.79;;;11.40;22.71
77691;BME280;66850;45.778;3.090;2023-01-13T11:07:04;97640.58;;;11.98;22.68
77691;BME280;66850;45.778;3.090;2023-01-13T11:09:29;97631.95;;;11.45;22.97
77691;BME280;66850;45.778;3.090;2023-01-13T11:11:53;97635.01;;;11.65;22.85
77691;BME280;66850;45.778;3.090;2023-01-13T11:14:23;97636.24;;;11.28;22.79
77691;BME280;66850;45.778;3.090;2023-01-13T11:16:47;97631.32;;;11.39;22.98
77691;BME280;66850;45.778;3.090;2023-01-13T11:19:12;97632.86;;;12.46;22.17
77691;BME280;66850;45.778;3.090;2023-01-13T11:21:37;97634.92;;;11.34;22.73
77691;BME280;66850;45.778;3.090;2023-01-13T11:24:04;97642.86;;;12.40;22.33
77691;BME280;66850;45.778;3.090;2023-01-13T11:26:31;97644.81;;;11.38;22.79
77691;BME280;66850;45.778;3.090;2023-01-13T11:28:58;97650.35;;;12.83;22.11
77691;BME280;66850;45.778;3.090;2023-01-13T11:31:21;97656.17;;;12.04;22.58
77691;BME280;66850;45.778;3.090;2023-01-13T11:33:45;97626.76;;;12.17;22.43
77691;BME280;66850;45.778;3.090;2023-01-13T11:36:12;97638.15;;;11.96;22.70
77691;BME280;66850;45.778;3.090;2023-01-13T11:38:39;97634.93;;;11.59;23.18
77691;BME280;66850;45.778;3.090;2023-01-13T11:41:05;97637.51;;;12.57;22.58
77691;BME280;66850;45.778;3.090;2023-01-13T11:43:28;97636.40;;;11.57;22.97
77691;BME280;66850;45.778;3.090;2023-01-13T11:45:50;97645.63;;;11.99;22.63
77691;BME280;66850;45.778;3.090;2023-01-13T11:48:16;97640.44;;;12.26;22.28
77691;BME280;66850;45.778;3.090;2023-01-13T11:50:41;97645.06;;;12.23;22.38
77691;BME280;66850;45.778;3.090;2023-01-13T11:53:14;97644.23;;;12.87;21.93
77691;BME280;66850;45.778;3.090;2023-01-13T11:55:35;97637.35;;;11.54;22.78
77691;BME280;66850;45.778;3.090;2023-01-13T11:58:07;97638.83;;;12.48;22.51
77691;BME280;66850;45.778;3.090;2023-01-13T12:00:30;97644.31;;;11.33;22.84
77691;BME280;66850;45.778;3.090;2023-01-13T12:02:54;97630.49;;;12.59;22.12
77691;BME280;66850;45.778;3.090;2023-01-13T12:05:20;97627.31;;;12.10;22.58
77691;BME280;66850;45.778;3.090;2023-01-13T12:07:42;97634.91;;;11.41;23.09
77691;BME280;66850;45.778;3.090;2023-01-13T12:10:07;97628.07;;;11.50;22.69
77691;BME280;66850;45.778;3.090;2023-01-13T12:12:39;97622.38;;;12.12;22.87
77691;BME280;66850;45.778;3.090;2023-01-13T12:15:38;97624.30;;;11.88;22.79
77691;BME280;66850;45.778;3.090;2023-01-13T12:17:24;97624.24;;;12.76;22.34
77691;BME280;66850;45.778;3.090;2023-01-13T12:19:46;97625.41;;;12.24;22.68
77691;BME280;66850;45.778;3.090;2023-01-13T12:22:12;97627.61;;;11.72;22.96
77691;BME280;66850;45.778;3.090;2023-01-13T12:24:40;97614.33;;;12.13;22.70
77691;BME280;66850;45.778;3.090;2023-01-13T12:27:04;97610.09;;;12.18;22.86
77691;BME280;66850;45.778;3.090;2023-01-13T12:29:30;97621.56;;;12.10;22.64
77691;BME280;66850;45.778;3.090;2023-01-13T12:31:51;97625.03;;;11.43;22.97
77691;BME280;66850;45.778;3.090;2023-01-13T12:34:25;97612.83;;;11.90;22.78
77691;BME280;66850;45.778;3.090;2023-01-13T12:36:52;97602.37;;;12.02;22.82
77691;BME280;66850;45.778;3.090;2023-01-13T12:39:13;97619.19;;;11.92;22.69
77691;BME280;66850;45.778;3.090;2023-01-13T12:41:39;97628.55;;;11.66;22.65
77691;BME280;66850;45.778;3.090;2023-01-13T12:43:58;97623.43;;;11.93;22.52
77691;BME280;66850;45.778;3.090;2023-01-13T12:46:45;97627.46;;;11.84;22.47
77691;BME280;66850;45.778;3.090;2023-01-13T12:49:06;97614.23;;;11.46;22.96